sensor_id;sensor_type;location;lat;lon;timestamp;pressure;altitude;pressure_sealevel;temperature;humidity
5574;BME280;2563;52.242;7.956;2022-09-09T00:00:21;99782.13;;;14.78;100.00
5574;BME280;2563;52.242;7.956;2022-09-09T00:03:00;99776.19;;;15.07;100.00
5574;BME280;2563;52.242;7.956;2022-09-09T00:05:44;99772.25;;;15.00;100.00
5574;BME280;2563;52.242;7.956;2022-09-09T00:08:20;99775.59;;;15.02;100.00
5574;BME280;2563;52.242;7.956;2022-09-09T00:10:53;99777.44;;;15.00;100.00
5574;BME280;2563;52.242;7.956;2022-09-09T00:13:31;99775.78;;;14.99;100.00
5574;BME280;2563;52.242;7.956;2022-09-09T00:16:19;99773.94;;;15.01;100.00
5574;BME280;2563;52.242;7.956;2022-09-09T00:21:49;99768.56;;;15.04;100.00
5574;BME280;2563;52.242;7.956;2022-09-09T00:24:32;99762.38;;;15.07;100.00
5574;BME280;2563;52.242;7.956;2022-09-09T00:27:10;99760.88;;;15.03;100.00
5574;BME280;2563;52.242;7.956;2022-09-09T00:29:57;99766.16;;;15.01;100.00
5574;BME280;2563;52.242;7.956;2022-09-09T00:32:28;99766.41;;;14.97;100.00
5574;BME280;2563;52.242;7.956;2022-09-09T00:34:58;99770.91;;;14.93;100.00
5574;BME280;2563;52.242;7.956;2022-09-09T00:37:26;99764.91;;;14.93;100.00
5574;BME280;2563;52.242;7.956;2022-09-09T00:39:53;99770.25;;;14.89;100.00
5574;BME280;2563;52.242;7.956;2022-09-09T00:42:40;99770.81;;;14.79;100.00
5574;BME280;2563;52.242;7.956;2022-09-09T00:47:53;99761.88;;;14.68;100.00
5574;BME280;2563;52.242;7.956;2022-09-09T00:50:47;99761.72;;;14.72;100.00
5574;BME280;2563;52.242;7.956;2022-09-09T00:56:18;99753.63;;;14.78;100.00
5574;BME280;2563;52.242;7.956;2022-09-09T01:01:44;99759.66;;;14.94;100.00
5574;BME280;2563;52.242;7.956;2022-09-09T01:04:13;99753.47;;;14.97;100.00
5574;BME280;2563;52.242;7.956;2022-09-09T01:06:41;99757.78;;;14.96;100.00
5574;BME280;2563;52.242;7.956;2022-09-09T01:09:18;99757.63;;;14.99;100.00
5574;BME280;2563;52.242;7.956;2022-09-09T01:17:31;99753.03;;;15.04;100.00
5574;BME280;2563;52.242;7.956;2022-09-09T01:20:30;99752.28;;;15.02;100.00
5574;BME280;2563;52.242;7.956;2022-09-09T01:28:35;99749.44;;;14.91;100.00
5574;BME280;2563;52.242;7.956;2022-09-09T01:31:03;99752.19;;;14.88;100.00
5574;BME280;2563;52.242;7.956;2022-09-09T01:33:29;99749.78;;;14.85;100.00
5574;BME280;2563;52.242;7.956;2022-09-09T01:35:56;99743.66;;;14.86;100.00
5574;BME280;2563;52.242;7.956;2022-09-09T01:38:23;99749.69;;;14.86;100.00
5574;BME280;2563;52.242;7.956;2022-09-09T01:40:50;99750.69;;;14.84;100.00
5574;BME280;2563;52.242;7.956;2022-09-09T01:43:18;99754.22;;;14.83;100.00
5574;BME280;2563;52.242;7.956;2022-09-09T01:45:46;99756.03;;;14.81;100.00
5574;BME280;2563;52.242;7.956;2022-09-09T01:48:14;99756.38;;;14.75;100.00
5574;BME280;2563;52.242;7.956;2022-09-09T01:50:39;99754.69;;;14.74;100.00
5574;BME280;2563;52.242;7.956;2022-09-09T01:53:05;99749.59;;;14.72;100.00
5574;BME280;2563;52.242;7.956;2022-09-09T01:55:35;99754.88;;;14.71;100.00
5574;BME280;2563;52.242;7.956;2022-09-09T02:03:44;99775.59;;;14.71;100.00
5574;BME280;2563;52.242;7.956;2022-09-09T02:06:35;99782.97;;;14.78;100.00
5574;BME280;2563;52.242;7.956;2022-09-09T02:09:05;99783.72;;;14.80;100.00
5574;BME280;2563;52.242;7.956;2022-09-09T02:11:31;99782.13;;;14.78;100.00
5574;BME280;2563;52.242;7.956;2022-09-09T02:14:00;99786.38;;;14.79;100.00
5574;BME280;2563;52.242;7.956;2022-09-09T02:16:38;99793.06;;;14.83;100.00
5574;BME280;2563;52.242;7.956;2022-09-09T02:19:19;99795.66;;;14.83;100.00
5574;BME280;2563;52.242;7.956;2022-09-09T02:21:52;99790.66;;;14.80;100.00
5574;BME280;2563;52.242;7.956;2022-09-09T02:24:19;99791.56;;;14.79;100.00
5574;BME280;2563;52.242;7.956;2022-09-09T02:26:46;99794.16;;;14.79;100.00
5574;BME280;2563;52.242;7.956;2022-09-09T02:29:15;99795.91;;;14.78;100.00
5574;BME280;2563;52.242;7.956;2022-09-09T02:31:44;99795.16;;;14.76;100.00
5574;BME280;2563;52.242;7.956;2022-09-09T02:34:13;99790.03;;;14.75;100.00
5574;BME280;2563;52.242;7.956;2022-09-09T02:36:41;99784.97;;;14.73;100.00
5574;BME280;2563;52.242;7.956;2022-09-09T02:39:09;99786.78;;;14.71;100.00
5574;BME280;2563;52.242;7.956;2022-09-09T02:41:38;99780.94;;;14.67;100.00
5574;BME280;2563;52.242;7.956;2022-09-09T02:44:15;99784.44;;;14.66;100.00
5574;BME280;2563;52.242;7.956;2022-09-09T02:49:57;99781.28;;;14.61;100.00
5574;BME280;2563;52.242;7.956;2022-09-09T02:52:38;99782.28;;;14.59;100.00
5574;BME280;2563;52.242;7.956;2022-09-09T02:55:23;99778.94;;;14.57;100.00
5574;BME280;2563;52.242;7.956;2022-09-09T02:57:49;99777.16;;;14.57;100.00
5574;BME280;2563;52.242;7.956;2022-09-09T03:00:23;99784.03;;;14.58;100.00
5574;BME280;2563;52.242;7.956;2022-09-09T03:02:49;99784.09;;;14.57;100.00
5574;BME280;2563;52.242;7.956;2022-09-09T03:05:15;99782.44;;;14.56;100.00
5574;BME280;2563;52.242;7.956;2022-09-09T03:07:41;99792.25;;;14.49;100.00
5574;BME280;2563;52.242;7.956;2022-09-09T03:10:07;99790.13;;;14.40;100.00
5574;BME280;2563;52.242;7.956;2022-09-09T03:12:33;99795.63;;;14.34;100.00
5574;BME280;2563;52.242;7.956;2022-09-09T03:14:58;99797.56;;;14.30;100.00
5574;BME280;2563;52.242;7.956;2022-09-09T03:17:24;99797.09;;;14.22;100.00
5574;BME280;2563;52.242;7.956;2022-09-09T03:19:49;99797.19;;;14.20;100.00
5574;BME280;2563;52.242;7.956;2022-09-09T03:22:17;99790.50;;;14.16;100.00
5574;BME280;2563;52.242;7.956;2022-09-09T03:24:43;99798.81;;;14.06;100.00
5574;BME280;2563;52.242;7.956;2022-09-09T03:27:08;99800.47;;;14.07;100.00
5574;BME280;2563;52.242;7.956;2022-09-09T03:29:33;99798.81;;;14.06;100.00
5574;BME280;2563;52.242;7.956;2022-09-09T03:31:59;99803.22;;;14.03;100.00
5574;BME280;2563;52.242;7.956;2022-09-09T03:34:24;99802.63;;;13.98;100.00
5574;BME280;2563;52.242;7.956;2022-09-09T03:36:50;99805.13;;;14.00;100.00
5574;BME280;2563;52.242;7.956;2022-09-09T03:39:15;99801.47;;;14.04;100.00
5574;BME280;2563;52.242;7.956;2022-09-09T03:41:41;99797.81;;;14.08;100.00
5574;BME280;2563;52.242;7.956;2022-09-09T03:44:06;99793.84;;;14.18;100.00
5574;BME280;2563;52.242;7.956;2022-09-09T03:46:31;99787.25;;;14.29;100.00
5574;BME280;2563;52.242;7.956;2022-09-09T03:48:57;99787.84;;;14.34;100.00
5574;BME280;2563;52.242;7.956;2022-09-09T03:51:22;99787.56;;;14.40;100.00
5574;BME280;2563;52.242;7.956;2022-09-09T03:53:47;99786.38;;;14.45;100.00
5574;BME280;2563;52.242;7.956;2022-09-09T03:56:13;99794.06;;;14.47;100.00
5574;BME280;2563;52.242;7.956;2022-09-09T03:58:38;99787.06;;;14.49;100.00
5574;BME280;2563;52.242;7.956;2022-09-09T04:01:06;99785.25;;;14.51;100.00
5574;BME280;2563;52.242;7.956;2022-09-09T04:03:33;99781.59;;;14.55;100.00
5574;BME280;2563;52.242;7.956;2022-09-09T04:06:02;99781.50;;;14.57;100.00
5574;BME280;2563;52.242;7.956;2022-09-09T04:08:29;99775.56;;;14.55;100.00
5574;BME280;2563;52.242;7.956;2022-09-09T04:10:56;99780.06;;;14.51;100.00
5574;BME280;2563;52.242;7.956;2022-09-09T04:13:23;99778.31;;;14.52;100.00
5574;BME280;2563;52.242;7.956;2022-09-09T04:15:57;99773.94;;;14.52;100.00
5574;BME280;2563;52.242;7.956;2022-09-09T04:18:24;99773.91;;;14.54;100.00
5574;BME280;2563;52.242;7.956;2022-09-09T04:20:50;99776.41;;;14.55;100.00
5574;BME280;2563;52.242;7.956;2022-09-09T04:23:17;99774.56;;;14.57;100.00
5574;BME280;2563;52.242;7.956;2022-09-09T04:25:51;99775.41;;;14.58;100.00
5574;BME280;2563;52.242;7.956;2022-09-09T04:28:18;99769.22;;;14.60;100.00
5574;BME280;2563;52.242;7.956;2022-09-09T04:30:44;99781.28;;;14.61;100.00
5574;BME280;2563;52.242;7.956;2022-09-09T04:33:11;99781.28;;;14.61;100.00
5574;BME280;2563;52.242;7.956;2022-09-09T04:35:37;99784.69;;;14.62;100.00
5574;BME280;2563;52.242;7.956;2022-09-09T04:38:03;99781.09;;;14.64;100.00
5574;BME280;2563;52.242;7.956;2022-09-09T04:40:30;99783.78;;;14.63;100.00
5574;BME280;2563;52.242;7.956;2022-09-09T04:42:58;99788.09;;;14.62;100.00
5574;BME280;2563;52.242;7.956;2022-09-09T04:45:23;99785.53;;;14.62;100.00
5574;BME280;2563;52.242;7.956;2022-09-09T04:47:48;99782.16;;;14.60;100.00
5574;BME280;2563;52.242;7.956;2022-09-09T04:50:14;99783.78;;;14.63;100.00
5574;BME280;2563;52.242;7.956;2022-09-09T04:52:39;99784.75;;;14.60;100.00
5574;BME280;2563;52.242;7.956;2022-09-09T04:55:06;99789.94;;;14.60;100.00
5574;BME280;2563;52.242;7.956;2022-09-09T04:57:32;99791.47;;;14.64;100.00
5574;BME280;2563;52.242;7.956;2022-09-09T04:59:58;99788.69;;;14.67;100.00
5574;BME280;2563;52.242;7.956;2022-09-09T05:02:25;99789.44;;;14.70;100.00
5574;BME280;2563;52.242;7.956;2022-09-09T05:04:51;99779.78;;;14.73;100.00
5574;BME280;2563;52.242;7.956;2022-09-09T05:07:16;99785.47;;;14.80;100.00
5574;BME280;2563;52.242;7.956;2022-09-09T05:09:41;99789.53;;;14.84;100.00
5574;BME280;2563;52.242;7.956;2022-09-09T05:12:07;99784.94;;;14.89;100.00
5574;BME280;2563;52.242;7.956;2022-09-09T05:14:33;99790.81;;;14.93;100.00
5574;BME280;2563;52.242;7.956;2022-09-09T05:16:59;99788.16;;;14.94;100.00
5574;BME280;2563;52.242;7.956;2022-09-09T05:19:24;99784.69;;;14.94;100.00
5574;BME280;2563;52.242;7.956;2022-09-09T05:21:50;99784.63;;;14.95;100.00
5574;BME280;2563;52.242;7.956;2022-09-09T05:24:15;99784.44;;;14.98;100.00
5574;BME280;2563;52.242;7.956;2022-09-09T05:26:41;99783.44;;;15.01;100.00
5574;BME280;2563;52.242;7.956;2022-09-09T05:29:07;99779.94;;;15.02;100.00
5574;BME280;2563;52.242;7.956;2022-09-09T05:31:33;99781.59;;;15.03;100.00
5574;BME280;2563;52.242;7.956;2022-09-09T05:33:58;99783.38;;;15.02;100.00
5574;BME280;2563;52.242;7.956;2022-09-09T05:36:24;99785.97;;;15.02;100.00
5574;BME280;2563;52.242;7.956;2022-09-09T05:38:50;99779.78;;;15.05;100.00
5574;BME280;2563;52.242;7.956;2022-09-09T05:41:16;99780.47;;;15.08;100.00
5574;BME280;2563;52.242;7.956;2022-09-09T05:43:42;99783.63;;;15.14;100.00
5574;BME280;2563;52.242;7.956;2022-09-09T05:46:14;99788.44;;;15.20;100.00
5574;BME280;2563;52.242;7.956;2022-09-09T05:48:41;99784.59;;;15.27;100.00
5574;BME280;2563;52.242;7.956;2022-09-09T05:51:10;99784.25;;;15.33;100.00
5574;BME280;2563;52.242;7.956;2022-09-09T05:53:37;99784.09;;;15.36;100.00
5574;BME280;2563;52.242;7.956;2022-09-09T05:58:30;99790.25;;;15.49;100.00
5574;BME280;2563;52.242;7.956;2022-09-09T06:01:07;99782.13;;;15.56;100.00
5574;BME280;2563;52.242;7.956;2022-09-09T06:03:38;99773.16;;;15.61;100.00
5574;BME280;2563;52.242;7.956;2022-09-09T06:06:06;99780.41;;;15.70;100.00
5574;BME280;2563;52.242;7.956;2022-09-09T06:08:33;99778.31;;;15.77;100.00
5574;BME280;2563;52.242;7.956;2022-09-09T06:11:07;99777.97;;;15.83;100.00
5574;BME280;2563;52.242;7.956;2022-09-09T06:13:33;99781.22;;;15.87;100.00
5574;BME280;2563;52.242;7.956;2022-09-09T06:15:58;99777.44;;;15.92;100.00
5574;BME280;2563;52.242;7.956;2022-09-09T06:18:25;99781.34;;;16.00;100.00
5574;BME280;2563;52.242;7.956;2022-09-09T06:21:01;99774.84;;;16.07;100.00
5574;BME280;2563;52.242;7.956;2022-09-09T06:23:30;99777.25;;;16.10;100.00
5574;BME280;2563;52.242;7.956;2022-09-09T06:26:06;99776.59;;;16.06;100.00
5574;BME280;2563;52.242;7.956;2022-09-09T06:28:33;99779.78;;;16.11;100.00
5574;BME280;2563;52.242;7.956;2022-09-09T06:31:04;99776.25;;;16.12;100.00
5574;BME280;2563;52.242;7.956;2022-09-09T06:33:49;99777.25;;;16.10;100.00
5574;BME280;2563;52.242;7.956;2022-09-09T06:36:29;99779.78;;;16.11;100.00
5574;BME280;2563;52.242;7.956;2022-09-09T06:38:56;99779.03;;;16.09;100.00
5574;BME280;2563;52.242;7.956;2022-09-09T06:41:23;99787.84;;;16.07;100.00
5574;BME280;2563;52.242;7.956;2022-09-09T06:43:49;99791.25;;;16.07;100.00
5574;BME280;2563;52.242;7.956;2022-09-09T06:46:16;99785.78;;;16.12;100.00
5574;BME280;2563;52.242;7.956;2022-09-09T06:48:43;99783.00;;;16.15;100.00
5574;BME280;2563;52.242;7.956;2022-09-09T06:51:19;99793.41;;;16.15;100.00
5574;BME280;2563;52.242;7.956;2022-09-09T06:53:46;99796.56;;;16.20;100.00
5574;BME280;2563;52.242;7.956;2022-09-09T06:56:30;99798.94;;;16.23;100.00
5574;BME280;2563;52.242;7.956;2022-09-09T06:58:57;99799.69;;;16.25;100.00
5574;BME280;2563;52.242;7.956;2022-09-09T07:01:34;99799.81;;;16.24;100.00
5574;BME280;2563;52.242;7.956;2022-09-09T07:04:01;99808.25;;;16.27;100.00
5574;BME280;2563;52.242;7.956;2022-09-09T07:06:32;99802.69;;;16.33;100.00
5574;BME280;2563;52.242;7.956;2022-09-09T07:09:04;99797.22;;;16.38;100.00
5574;BME280;2563;52.242;7.956;2022-09-09T07:11:39;99797.78;;;16.43;100.00
5574;BME280;2563;52.242;7.956;2022-09-09T07:14:04;99806.41;;;16.44;100.00
5574;BME280;2563;52.242;7.956;2022-09-09T07:16:30;99805.84;;;16.53;100.00
5574;BME280;2563;52.242;7.956;2022-09-09T07:18:58;99806.75;;;16.52;100.00
5574;BME280;2563;52.242;7.956;2022-09-09T07:21:25;99807.03;;;16.62;100.00
5574;BME280;2563;52.242;7.956;2022-09-09T07:23:51;99811.28;;;16.77;100.00
5574;BME280;2563;52.242;7.956;2022-09-09T07:26:19;99806.38;;;16.87;100.00
5574;BME280;2563;52.242;7.956;2022-09-09T07:28:45;99805.00;;;16.95;100.00
5574;BME280;2563;52.242;7.956;2022-09-09T07:31:16;99813.19;;;17.16;100.00
5574;BME280;2563;52.242;7.956;2022-09-09T07:33:43;99818.50;;;17.42;100.00
5574;BME280;2563;52.242;7.956;2022-09-09T07:38:45;99826.00;;;17.47;100.00
5574;BME280;2563;52.242;7.956;2022-09-09T07:41:14;99832.25;;;17.44;100.00
5574;BME280;2563;52.242;7.956;2022-09-09T07:43:41;99830.84;;;17.65;100.00
5574;BME280;2563;52.242;7.956;2022-09-09T07:46:08;99838.75;;;17.64;100.00
5574;BME280;2563;52.242;7.956;2022-09-09T07:48:34;99852.38;;;17.82;100.00
5574;BME280;2563;52.242;7.956;2022-09-09T07:51:12;99841.81;;;18.11;100.00
5574;BME280;2563;52.242;7.956;2022-09-09T07:53:41;99852.00;;;18.14;100.00
5574;BME280;2563;52.242;7.956;2022-09-09T07:56:09;99852.75;;;18.16;100.00
5574;BME280;2563;52.242;7.956;2022-09-09T07:58:37;99856.91;;;18.31;100.00
5574;BME280;2563;52.242;7.956;2022-09-09T08:01:10;99865.47;;;18.20;100.00
5574;BME280;2563;52.242;7.956;2022-09-09T08:03:37;99873.91;;;18.37;100.00
5574;BME280;2563;52.242;7.956;2022-09-09T08:06:04;99867.03;;;18.48;100.00
5574;BME280;2563;52.242;7.956;2022-09-09T08:08:32;99875.38;;;18.54;100.00
5574;BME280;2563;52.242;7.956;2022-09-09T08:11:16;99874.09;;;18.72;100.00
5574;BME280;2563;52.242;7.956;2022-09-09T08:13:42;99875.38;;;18.79;100.00
5574;BME280;2563;52.242;7.956;2022-09-09T08:16:16;99891.44;;;18.73;100.00
5574;BME280;2563;52.242;7.956;2022-09-09T08:18:42;99888.41;;;18.92;100.00
5574;BME280;2563;52.242;7.956;2022-09-09T08:21:13;99898.34;;;18.87;100.00
5574;BME280;2563;52.242;7.956;2022-09-09T08:23:40;99898.34;;;18.87;100.00
5574;BME280;2563;52.242;7.956;2022-09-09T08:26:19;99899.47;;;18.83;100.00
5574;BME280;2563;52.242;7.956;2022-09-09T08:28:46;99909.78;;;18.71;100.00
5574;BME280;2563;52.242;7.956;2022-09-09T08:31:17;99924.56;;;18.45;100.00
5574;BME280;2563;52.242;7.956;2022-09-09T08:33:43;99919.16;;;18.61;100.00
5574;BME280;2563;52.242;7.956;2022-09-09T08:36:13;99919.78;;;18.65;100.00
5574;BME280;2563;52.242;7.956;2022-09-09T08:38:41;99920.75;;;18.89;100.00
5574;BME280;2563;52.242;7.956;2022-09-09T08:50:12;99928.69;;;19.38;100.00
5574;BME280;2563;52.242;7.956;2022-09-09T08:52:28;99932.44;;;19.70;100.00
5574;BME280;2563;52.242;7.956;2022-09-09T08:54:59;99946.38;;;19.71;100.00
5574;BME280;2563;52.242;7.956;2022-09-09T08:57:29;99938.28;;;19.98;100.00
5574;BME280;2563;52.242;7.956;2022-09-09T08:59:56;99944.84;;;20.04;100.00
5574;BME280;2563;52.242;7.956;2022-09-09T09:05:15;99953.84;;;20.24;100.00
5574;BME280;2563;52.242;7.956;2022-09-09T09:10:30;99969.53;;;20.00;100.00
5574;BME280;2563;52.242;7.956;2022-09-09T09:12:58;99975.31;;;18.92;100.00
5574;BME280;2563;52.242;7.956;2022-09-09T09:15:26;99959.22;;;18.73;100.00
5574;BME280;2563;52.242;7.956;2022-09-09T09:17:52;99931.50;;;18.85;100.00
5574;BME280;2563;52.242;7.956;2022-09-09T09:20:23;99904.97;;;19.04;100.00
5574;BME280;2563;52.242;7.956;2022-09-09T09:22:51;99901.63;;;18.89;100.00
5574;BME280;2563;52.242;7.956;2022-09-09T09:27:59;99882.53;;;19.38;100.00
5574;BME280;2563;52.242;7.956;2022-09-09T09:30:54;99886.22;;;18.99;100.00
5574;BME280;2563;52.242;7.956;2022-09-09T09:35:57;99877.03;;;20.02;100.00
5574;BME280;2563;52.242;7.956;2022-09-09T09:38:26;99880.19;;;20.30;100.00
5574;BME280;2563;52.242;7.956;2022-09-09T09:40:57;99890.38;;;20.68;100.00
5574;BME280;2563;52.242;7.956;2022-09-09T09:43:28;99894.44;;;20.84;100.00
5574;BME280;2563;52.242;7.956;2022-09-09T09:45:55;99895.00;;;21.10;100.00
5574;BME280;2563;52.242;7.956;2022-09-09T09:48:23;99911.13;;;21.26;100.00
5574;BME280;2563;52.242;7.956;2022-09-09T09:50:51;99924.38;;;21.24;100.00
5574;BME280;2563;52.242;7.956;2022-09-09T09:53:25;99931.50;;;22.21;100.00
5574;BME280;2563;52.242;7.956;2022-09-09T09:56:00;99942.56;;;22.24;100.00
5574;BME280;2563;52.242;7.956;2022-09-09T10:03:51;99972.09;;;22.89;100.00
5574;BME280;2563;52.242;7.956;2022-09-09T10:06:17;99989.06;;;22.22;100.00
5574;BME280;2563;52.242;7.956;2022-09-09T10:08:46;99986.13;;;22.58;100.00
5574;BME280;2563;52.242;7.956;2022-09-09T10:11:35;99993.81;;;22.70;100.00
5574;BME280;2563;52.242;7.956;2022-09-09T10:14:20;99996.84;;;22.34;100.00
5574;BME280;2563;52.242;7.956;2022-09-09T10:17:12;99999.19;;;21.61;100.00
5574;BME280;2563;52.242;7.956;2022-09-09T10:19:56;100011.09;;;21.09;100.00
5574;BME280;2563;52.242;7.956;2022-09-09T10:22:28;100014.66;;;21.19;100.00
5574;BME280;2563;52.242;7.956;2022-09-09T10:28:15;99990.28;;;22.39;100.00
5574;BME280;2563;52.242;7.956;2022-09-09T10:33:43;100003.16;;;22.63;100.00
5574;BME280;2563;52.242;7.956;2022-09-09T10:36:16;100005.50;;;22.45;100.00
5574;BME280;2563;52.242;7.956;2022-09-09T10:38:48;100016.81;;;21.81;100.00
5574;BME280;2563;52.242;7.956;2022-09-09T10:57:31;100014.50;;;20.40;100.00
5574;BME280;2563;52.242;7.956;2022-09-09T11:00:04;100012.72;;;20.52;100.00
5574;BME280;2563;52.242;7.956;2022-09-09T11:02:32;100003.47;;;20.83;100.00
5574;BME280;2563;52.242;7.956;2022-09-09T11:05:18;99991.56;;;22.45;100.00
5574;BME280;2563;52.242;7.956;2022-09-09T11:07:56;99988.22;;;23.46;100.00
5574;BME280;2563;52.242;7.956;2022-09-09T11:19:33;100013.41;;;25.14;100.00
5574;BME280;2563;52.242;7.956;2022-09-09T11:22:02;100029.47;;;25.58;100.00
5574;BME280;2563;52.242;7.956;2022-09-09T11:24:36;100017.97;;;26.23;100.00
5574;BME280;2563;52.242;7.956;2022-09-09T11:27:09;100044.16;;;25.23;100.00
5574;BME280;2563;52.242;7.956;2022-09-09T11:40:24;100072.38;;;24.94;100.00
5574;BME280;2563;52.242;7.956;2022-09-09T11:43:05;100084.72;;;25.50;100.00
5574;BME280;2563;52.242;7.956;2022-09-09T11:45:34;100086.25;;;24.37;100.00
5574;BME280;2563;52.242;7.956;2022-09-09T11:48:02;100095.03;;;23.67;100.00
5574;BME280;2563;52.242;7.956;2022-09-09T11:50:30;100103.84;;;23.25;100.00
5574;BME280;2563;52.242;7.956;2022-09-09T11:53:14;100097.59;;;23.47;100.00
5574;BME280;2563;52.242;7.956;2022-09-09T11:55:41;100096.59;;;23.18;100.00
5574;BME280;2563;52.242;7.956;2022-09-09T12:00:38;100094.38;;;22.16;100.00
5574;BME280;2563;52.242;7.956;2022-09-09T12:03:05;100091.56;;;21.97;100.00
5574;BME280;2563;52.242;7.956;2022-09-09T12:05:42;100101.13;;;21.53;100.00
5574;BME280;2563;52.242;7.956;2022-09-09T12:08:11;100090.09;;;21.25;100.00
5574;BME280;2563;52.242;7.956;2022-09-09T12:10:54;100092.25;;;21.20;100.00
5574;BME280;2563;52.242;7.956;2022-09-09T12:13:26;100084.94;;;21.81;100.00
5574;BME280;2563;52.242;7.956;2022-09-09T12:15:56;100086.50;;;22.60;100.00
5574;BME280;2563;52.242;7.956;2022-09-09T12:18:25;100080.38;;;24.05;100.00
5574;BME280;2563;52.242;7.956;2022-09-09T12:23:47;100085.63;;;25.31;100.00
5574;BME280;2563;52.242;7.956;2022-09-09T12:29:21;100085.47;;;23.25;100.00
5574;BME280;2563;52.242;7.956;2022-09-09T12:32:10;100082.16;;;23.54;100.00
5574;BME280;2563;52.242;7.956;2022-09-09T12:34:41;100081.38;;;23.11;100.00
5574;BME280;2563;52.242;7.956;2022-09-09T12:37:47;100079.41;;;22.71;100.00
5574;BME280;2563;52.242;7.956;2022-09-09T12:42:44;100067.13;;;22.51;100.00
5574;BME280;2563;52.242;7.956;2022-09-09T12:45:21;100065.03;;;23.69;100.00
5574;BME280;2563;52.242;7.956;2022-09-09T12:47:51;100058.94;;;24.77;100.00
5574;BME280;2563;52.242;7.956;2022-09-09T12:50:24;100057.31;;;24.67;100.00
5574;BME280;2563;52.242;7.956;2022-09-09T12:52:58;100062.19;;;24.61;100.00
5574;BME280;2563;52.242;7.956;2022-09-09T12:55:28;100046.38;;;24.52;100.00
5574;BME280;2563;52.242;7.956;2022-09-09T12:57:55;100056.00;;;25.10;100.00
5574;BME280;2563;52.242;7.956;2022-09-09T13:00:23;100054.72;;;25.14;100.00
5574;BME280;2563;52.242;7.956;2022-09-09T13:02:56;100056.69;;;25.02;100.00
5574;BME280;2563;52.242;7.956;2022-09-09T13:05:31;100056.31;;;24.77;100.00
5574;BME280;2563;52.242;7.956;2022-09-09T13:08:04;100055.22;;;24.22;100.00
5574;BME280;2563;52.242;7.956;2022-09-09T13:10:35;100058.47;;;23.85;100.00
5574;BME280;2563;52.242;7.956;2022-09-09T13:13:04;100052.69;;;24.01;100.00
5574;BME280;2563;52.242;7.956;2022-09-09T13:15:30;100056.44;;;24.08;100.00
5574;BME280;2563;52.242;7.956;2022-09-09T13:17:58;100057.44;;;24.26;100.00
5574;BME280;2563;52.242;7.956;2022-09-09T13:20:26;100064.84;;;23.92;100.00
5574;BME280;2563;52.242;7.956;2022-09-09T13:22:53;100054.69;;;24.57;100.00
5574;BME280;2563;52.242;7.956;2022-09-09T13:25:25;100047.97;;;24.92;100.00
5574;BME280;2563;52.242;7.956;2022-09-09T13:28:00;100047.75;;;24.46;100.00
5574;BME280;2563;52.242;7.956;2022-09-09T13:35:50;100050.03;;;23.50;100.00
5574;BME280;2563;52.242;7.956;2022-09-09T13:38:16;100052.72;;;24.39;100.00
5574;BME280;2563;52.242;7.956;2022-09-09T13:40:59;100043.31;;;24.47;100.00
5574;BME280;2563;52.242;7.956;2022-09-09T13:43:30;100047.44;;;24.10;100.00
5574;BME280;2563;52.242;7.956;2022-09-09T13:45:59;100050.66;;;24.14;100.00
5574;BME280;2563;52.242;7.956;2022-09-09T13:48:25;100049.97;;;24.31;100.00
5574;BME280;2563;52.242;7.956;2022-09-09T13:50:59;100034.53;;;24.95;100.00
5574;BME280;2563;52.242;7.956;2022-09-09T13:53:25;100037.56;;;25.47;100.00
5574;BME280;2563;52.242;7.956;2022-09-09T13:55:50;100036.47;;;25.95;100.00
5574;BME280;2563;52.242;7.956;2022-09-09T13:58:17;100050.75;;;24.80;100.00
5574;BME280;2563;52.242;7.956;2022-09-09T14:00:46;100048.97;;;24.13;100.00
5574;BME280;2563;52.242;7.956;2022-09-09T14:03:12;100048.13;;;23.52;100.00
5574;BME280;2563;52.242;7.956;2022-09-09T14:05:38;100045.28;;;23.34;100.00
5574;BME280;2563;52.242;7.956;2022-09-09T14:08:06;100049.28;;;23.39;100.00
5574;BME280;2563;52.242;7.956;2022-09-09T14:10:32;100050.59;;;23.44;100.00
5574;BME280;2563;52.242;7.956;2022-09-09T14:12:57;100048.13;;;23.52;100.00
5574;BME280;2563;52.242;7.956;2022-09-09T14:15:23;100053.09;;;23.25;100.00
5574;BME280;2563;52.242;7.956;2022-09-09T14:17:48;100059.91;;;23.27;100.00
5574;BME280;2563;52.242;7.956;2022-09-09T14:20:14;100062.84;;;22.71;100.00
5574;BME280;2563;52.242;7.956;2022-09-09T14:22:41;100078.13;;;22.34;100.00
5574;BME280;2563;52.242;7.956;2022-09-09T14:25:07;100097.78;;;21.73;100.00
5574;BME280;2563;52.242;7.956;2022-09-09T14:27:32;100107.00;;;21.21;100.00
5574;BME280;2563;52.242;7.956;2022-09-09T14:29:58;100105.34;;;19.75;100.00
5574;BME280;2563;52.242;7.956;2022-09-09T14:32:25;100096.53;;;19.00;100.00
5574;BME280;2563;52.242;7.956;2022-09-09T14:34:50;100087.63;;;18.49;100.00
5574;BME280;2563;52.242;7.956;2022-09-09T14:37:16;100075.47;;;18.36;100.00
5574;BME280;2563;52.242;7.956;2022-09-09T14:39:42;100068.75;;;18.19;100.00
5574;BME280;2563;52.242;7.956;2022-09-09T14:42:09;100043.66;;;19.23;100.00
5574;BME280;2563;52.242;7.956;2022-09-09T14:44:36;100030.88;;;19.94;100.00
5574;BME280;2563;52.242;7.956;2022-09-09T14:47:04;100023.22;;;20.04;100.00
5574;BME280;2563;52.242;7.956;2022-09-09T14:49:29;100015.28;;;19.81;100.00
5574;BME280;2563;52.242;7.956;2022-09-09T14:51:54;100002.22;;;20.05;100.00
5574;BME280;2563;52.242;7.956;2022-09-09T14:54:20;99991.94;;;19.91;100.00
5574;BME280;2563;52.242;7.956;2022-09-09T14:56:48;99981.38;;;19.92;100.00
5574;BME280;2563;52.242;7.956;2022-09-09T14:59:14;99962.97;;;19.94;100.00
5574;BME280;2563;52.242;7.956;2022-09-09T15:01:39;99954.88;;;19.86;100.00
5574;BME280;2563;52.242;7.956;2022-09-09T15:04:05;99946.63;;;20.03;100.00
5574;BME280;2563;52.242;7.956;2022-09-09T15:06:33;99947.59;;;20.02;100.00
5574;BME280;2563;52.242;7.956;2022-09-09T15:08:59;99937.38;;;20.10;100.00
5574;BME280;2563;52.242;7.956;2022-09-09T15:11:31;99933.69;;;20.02;100.00
5574;BME280;2563;52.242;7.956;2022-09-09T15:13:59;99941.50;;;19.77;100.00
5574;BME280;2563;52.242;7.956;2022-09-09T15:16:27;99949.47;;;19.63;100.00
5574;BME280;2563;52.242;7.956;2022-09-09T15:18:56;99940.41;;;19.19;100.00
5574;BME280;2563;52.242;7.956;2022-09-09T15:21:24;99935.44;;;18.90;100.00